Time;durP1;ratioP1;P1;durP2;ratioP2;P2;SDS_P1;SDS_P2;PMS_P1;PMS_P2;Temp;Humidity;BMP_temperature;BMP_pressure;BME280_temperature;BME280_humidity;BME280_pressure;Samples;Min_cycle;Max_cycle;Signal;HPM_P1;HPM_P2
2022/12/11 00:00:10;;;;;;;27.98;13.57;;;;;;;-3.95;53.54;94784.00;5042325;28;20040;-65
2022/12/11 00:02:36;;;;;;;46.55;17.05;;;;;;;-3.54;54.30;94775.03;5041209;28;20424;-65
2022/12/11 00:05:01;;;;;;;24.88;12.73;;;;;;;-4.04;53.43;94778.50;5042338;28;20043;-65
2022/12/11 00:07:27;;;;;;;28.70;14.85;;;;;;;-4.04;54.83;94791.53;5042569;28;20025;-65
2022/12/11 00:09:52;;;;;;;32.42;15.57;;;;;;;-4.03;54.04;94781.97;5042121;28;20044;-65
2022/12/11 00:12:18;;;;;;;25.58;11.63;;;;;;;-3.80;54.00;94793.31;5041941;28;20056;-65
2022/12/11 00:14:43;;;;;;;26.05;12.85;;;;;;;-4.22;53.52;94783.25;5042655;28;20393;-65
2022/12/11 00:17:09;;;;;;;25.70;13.35;;;;;;;-4.23;53.26;94783.34;5042285;28;20459;-65
2022/12/11 00:19:34;;;;;;;26.60;14.20;;;;;;;-3.91;52.88;94782.84;5042288;28;20688;-65
2022/12/11 00:21:59;;;;;;;25.88;12.60;;;;;;;-4.31;54.01;94783.88;5040369;28;20044;-67
2022/12/11 00:24:25;;;;;;;38.95;13.23;;;;;;;-4.45;54.13;94787.44;5042048;28;20421;-65
2022/12/11 00:26:50;;;;;;;20.95;8.70;;;;;;;-4.86;55.07;94797.09;5041271;28;20029;-65
2022/12/11 00:29:16;;;;;;;24.58;10.70;;;;;;;-4.94;55.90;94800.19;5035455;28;20044;-65
2022/12/11 00:31:41;;;;;;;27.27;12.85;;;;;;;-4.63;57.15;94795.53;5041644;28;20040;-65
2022/12/11 00:34:10;;;;;;;24.13;10.32;;;;;;;-4.71;54.99;94792.63;5039171;28;20333;-65
2022/12/11 00:36:36;;;;;;;36.58;12.20;;;;;;;-4.91;55.20;94797.41;5040214;28;20107;-64
2022/12/11 00:39:01;;;;;;;33.45;13.38;;;;;;;-4.68;54.66;94795.84;5039758;28;20500;-65
2022/12/11 00:41:27;;;;;;;21.52;8.73;;;;;;;-4.91;55.36;94800.00;5038523;28;20029;-65
2022/12/11 00:43:52;;;;;;;28.70;10.93;;;;;;;-4.91;55.77;94800.00;5041877;28;20033;-65
2022/12/11 00:46:18;;;;;;;17.85;8.88;;;;;;;-5.15;56.41;94794.66;5040762;28;20144;-65
2022/12/11 00:48:45;;;;;;;21.02;9.82;;;;;;;-5.49;57.12;94795.94;5041429;28;20045;-64
2022/12/11 00:51:10;;;;;;;21.02;10.68;;;;;;;-5.34;57.70;94788.91;5039117;28;20045;-65
2022/12/11 00:53:36;;;;;;;16.98;8.15;;;;;;;-5.54;58.31;94797.16;5038030;28;20047;-65
2022/12/11 00:56:07;;;;;;;14.68;6.93;;;;;;;-6.01;59.24;94797.47;5038622;28;20044;-65
2022/12/11 00:58:33;;;;;;;31.30;9.68;;;;;;;-6.41;60.12;94796.41;5037188;28;20033;-65
2022/12/11 01:01:05;;;;;;;28.23;9.40;;;;;;;-6.26;60.48;94801.56;5039930;28;20047;-65
2022/12/11 01:03:30;;;;;;;25.23;10.20;;;;;;;-6.37;60.73;94803.06;5038047;28;20021;-65
2022/12/11 01:05:55;;;;;;;14.02;6.97;;;;;;;-6.32;61.01;94799.38;5038502;28;20051;-65
2022/12/11 01:08:21;;;;;;;27.65;10.55;;;;;;;-6.56;62.17;94792.16;5038722;28;20099;-65
2022/12/11 01:10:46;;;;;;;30.52;12.60;;;;;;;-6.26;61.22;94802.41;5040517;28;20040;-65
2022/12/11 01:13:11;;;;;;;16.05;8.18;;;;;;;-6.43;61.20;94803.44;5040095;28;20040;-65
2022/12/11 01:15:39;;;;;;;26.98;8.82;;;;;;;-6.45;60.89;94804.44;5039825;28;20390;-65
2022/12/11 01:18:04;;;;;;;15.40;6.90;;;;;;;-6.50;61.37;94802.13;5035577;28;20021;-65
2022/12/11 01:20:30;;;;;;;27.67;8.00;;;;;;;-6.37;61.39;94805.66;5039600;28;20056;-65
2022/12/11 01:22:56;;;;;;;18.80;9.10;;;;;;;-6.05;60.73;94803.78;5038314;28;20037;-65
2022/12/11 01:25:21;;;;;;;26.20;7.20;;;;;;;-6.25;60.37;94806.66;5039430;28;20179;-65
2022/12/11 01:27:51;;;;;;;31.77;10.65;;;;;;;-6.51;61.05;94805.66;5037726;28;20262;-65
2022/12/11 01:30:17;;;;;;;17.42;7.05;;;;;;;-6.20;60.16;94800.34;5038155;28;20029;-65
2022/12/11 01:32:42;;;;;;;19.08;9.48;;;;;;;-5.90;59.82;94794.19;5035769;28;20473;-65
2022/12/11 01:35:09;;;;;;;16.05;6.80;;;;;;;-5.87;59.93;94794.81;5038582;28;20028;-65
2022/12/11 01:37:34;;;;;;;15.88;7.80;;;;;;;-5.80;59.02;94795.28;5035663;28;20701;-65
2022/12/11 01:40:00;;;;;;;24.77;11.75;;;;;;;-5.49;58.77;94787.31;5039876;28;20028;-64
2022/12/11 01:42:27;;;;;;;16.77;7.32;;;;;;;-5.15;58.68;94794.66;5040293;28;20029;-65
2022/12/11 01:45:11;;;;;;;24.70;7.85;;;;;;;-5.42;58.69;94790.34;5036447;28;20036;-65
2022/12/11 01:47:37;;;;;;;20.92;9.90;;;;;;;-5.35;58.15;94791.59;5037450;28;20061;-65
2022/12/11 01:50:02;;;;;;;21.85;10.43;;;;;;;-5.27;57.90;94788.53;5039352;28;20106;-65
2022/12/11 01:52:28;;;;;;;24.50;10.57;;;;;;;-5.25;57.55;94789.25;5036216;28;20385;-65
2022/12/11 01:54:53;;;;;;;21.42;8.85;;;;;;;-5.26;57.31;94787.59;5036906;28;20017;-65
2022/12/11 01:57:19;;;;;;;16.27;8.02;;;;;;;-5.36;58.50;94790.75;5036883;28;20102;-65
2022/12/11 01:59:44;;;;;;;24.40;11.18;;;;;;;-5.24;58.35;94791.75;5038893;28;20033;-65
2022/12/11 02:02:27;;;;;;;15.45;6.63;;;;;;;-5.56;58.22;94783.44;5035204;28;20029;-65
2022/12/11 02:04:52;;;;;;;18.88;9.15;;;;;;;-5.37;58.98;94785.69;5035005;28;20041;-65
2022/12/11 02:07:18;;;;;;;21.77;9.57;;;;;;;-5.52;58.70;94780.56;5038917;28;20694;-65
2022/12/11 02:09:44;;;;;;;22.85;10.60;;;;;;;-5.42;58.27;94788.59;5039266;28;20033;-65
2022/12/11 02:12:23;;;;;;;24.42;12.73;;;;;;;-5.10;59.95;94788.22;5038176;28;20459;-65
2022/12/11 02:14:54;;;;;;;25.05;10.20;;;;;;;-4.97;58.08;94782.22;5037517;28;20037;-65
2022/12/11 02:17:35;;;;;;;20.67;9.52;;;;;;;-5.23;57.48;94782.19;5038973;28;20057;-65
2022/12/11 02:20:06;;;;;;;36.08;12.52;;;;;;;-4.91;57.69;94779.22;5039290;28;20386;-65
2022/12/11 02:23:06;;;;;;;26.13;11.93;;;;;;;-4.63;58.16;94772.16;5021427;28;20037;-65
2022/12/11 02:25:32;;;;;;;19.63;9.93;;;;;;;-4.20;56.82;94770.13;5037892;28;20029;-65
2022/12/11 02:28:22;;;;;;;25.63;12.73;;;;;;;-4.30;56.06;94777.75;5039492;28;20512;-65
2022/12/11 02:30:53;;;;;;;15.55;7.88;;;;;;;-4.19;55.13;94777.00;5039252;28;20033;-65
2022/12/11 02:33:23;;;;;;;24.80;12.85;;;;;;;-4.22;57.33;94766.78;5037281;28;20032;-65
2022/12/11 02:35:48;;;;;;;19.42;9.65;;;;;;;-4.59;56.73;94775.38;5019136;28;20023;-65
2022/12/11 02:38:34;;;;;;;19.77;9.88;;;;;;;-4.28;55.71;94775.84;5036161;28;20037;-65
2022/12/11 02:40:59;;;;;;;23.33;11.57;;;;;;;-4.33;58.04;94765.78;5018481;28;20029;-65
2022/12/11 02:43:25;;;;;;;19.48;9.35;;;;;;;-4.34;54.92;94769.34;5019748;28;20047;-65
2022/12/11 02:45:50;;;;;;;19.95;9.55;;;;;;;-4.65;55.49;94771.44;5036431;28;20064;-65
2022/12/11 02:48:16;;;;;;;20.45;10.18;;;;;;;-4.69;55.46;94782.97;5037982;28;20036;-65
2022/12/11 02:50:42;;;;;;;18.58;9.93;;;;;;;-4.59;55.05;94781.41;5042111;28;20045;-65
2022/12/11 02:53:09;;;;;;;25.70;11.98;;;;;;;-4.44;54.78;94779.50;5039745;28;20287;-65
2022/12/11 02:55:34;;;;;;;34.85;10.93;;;;;;;-4.31;54.06;94779.50;5024320;28;20507;-65
2022/12/11 02:58:03;;;;;;;18.90;8.35;;;;;;;-4.12;53.38;94775.63;5042208;28;20108;-65
2022/12/11 03:00:29;;;;;;;18.85;8.02;;;;;;;-5.13;56.40;94782.41;5040980;28;20125;-65
2022/12/11 03:02:55;;;;;;;25.75;8.27;;;;;;;-5.16;56.54;94783.47;5038573;28;20430;-65
2022/12/11 03:05:20;;;;;;;22.13;9.73;;;;;;;-4.71;55.42;94782.25;5035865;28;20101;-65
2022/12/11 03:07:45;;;;;;;20.42;9.70;;;;;;;-4.77;55.67;94777.44;5041669;28;20116;-65
2022/12/11 03:10:13;;;;;;;16.33;8.27;;;;;;;-5.30;57.65;94784.34;5042699;28;20113;-65
2022/12/11 03:12:40;;;;;;;12.20;5.75;;;;;;;-5.54;58.41;94779.00;5039627;28;20349;-65
2022/12/11 03:15:08;;;;;;;24.08;9.07;;;;;;;-5.02;57.41;94774.75;5039201;28;20100;-65
2022/12/11 03:17:59;;;;;;;22.58;10.25;;;;;;;-5.14;59.29;94768.59;5042475;28;20098;-65
2022/12/11 03:20:36;;;;;;;24.35;10.40;;;;;;;-4.98;60.81;94764.97;5026107;28;20089;-65
2022/12/11 03:23:11;;;;;;;28.85;7.78;;;;;;;-5.17;57.72;94762.78;5040797;28;20568;-65
2022/12/11 03:25:57;;;;;;;47.65;12.10;;;;;;;-5.12;57.80;94766.75;5041606;28;20105;-65
2022/12/11 03:28:29;;;;;;;33.10;10.90;;;;;;;-5.18;58.58;94767.13;5031657;28;20571;-65
2022/12/11 03:30:55;;;;;;;38.58;11.98;;;;;;;-4.70;57.24;94758.75;5039394;28;20472;-65
2022/12/11 03:33:35;;;;;;;23.23;12.27;;;;;;;-4.43;58.46;94770.81;5043074;28;20101;-65
2022/12/11 03:36:07;;;;;;;21.33;11.00;;;;;;;-4.50;57.29;94771.31;5025117;28;20100;-65
2022/12/11 03:38:37;;;;;;;20.02;9.43;;;;;;;-4.54;57.29;94770.72;5043629;28;20100;-65
2022/12/11 03:41:03;;;;;;;28.63;11.50;;;;;;;-4.09;61.49;94765.00;5040944;28;20156;-65
2022/12/11 03:43:28;;;;;;;24.80;12.23;;;;;;;-4.13;58.33;94767.94;5025224;28;20081;-65
2022/12/11 03:45:53;;;;;;;25.27;12.75;;;;;;;-4.04;57.87;94765.50;5023925;28;20101;-65
2022/12/11 03:48:19;;;;;;;24.88;11.90;;;;;;;-4.21;56.02;94760.69;5024616;28;20109;-65
2022/12/11 03:50:44;;;;;;;27.83;13.10;;;;;;;-3.86;55.50;94767.75;5039637;28;20109;-65
2022/12/11 03:53:10;;;;;;;27.13;12.35;;;;;;;-4.09;55.00;94771.97;5041224;28;20383;-65
2022/12/11 03:55:35;;;;;;;23.58;12.10;;;;;;;-3.98;55.57;94768.63;5023367;28;20096;-65
2022/12/11 03:58:01;;;;;;;24.42;12.48;;;;;;;-4.04;55.92;94775.91;5040483;28;20101;-65
2022/12/11 04:00:26;;;;;;;29.73;13.15;;;;;;;-3.29;59.72;94772.41;5038685;28;20608;-65
2022/12/11 04:05:35;;;;;;;23.63;11.98;;;;;;;-3.64;54.67;94766.22;5041805;28;20135;-65
2022/12/11 04:08:01;;;;;;;26.42;12.57;;;;;;;-3.12;56.48;94760.75;5041906;28;20089;-65
2022/12/11 04:10:26;;;;;;;44.67;13.35;;;;;;;-2.97;53.27;94758.75;5042569;28;20546;-65
2022/12/11 04:12:52;;;;;;;25.27;12.45;;;;;;;-2.87;51.47;94748.47;5041147;28;20116;-65
2022/12/11 04:15:17;;;;;;;22.95;11.57;;;;;;;-2.98;52.60;94762.31;5042538;28;20381;-65
2022/12/11 04:26:13;;;;;;;18.75;10.20;;;;;;;-2.61;58.20;94756.09;5040868;28;20104;-65
2022/12/11 04:28:39;;;;;;;26.25;12.65;;;;;;;-2.76;53.44;94755.47;5039506;28;20570;-65
2022/12/11 04:31:04;;;;;;;25.25;11.60;;;;;;;-2.84;55.84;94758.69;5041980;28;20076;-65
2022/12/11 04:33:30;;;;;;;22.63;11.80;;;;;;;-2.51;57.61;94758.84;5041634;28;20072;-65
2022/12/11 04:35:59;;;;;;;22.10;11.18;;;;;;;-2.13;55.78;94752.41;5039437;28;20044;-65
2022/12/11 04:38:24;;;;;;;30.27;12.50;;;;;;;-2.02;54.80;94748.97;5042493;28;20048;-65
2022/12/11 04:40:57;;;;;;;22.23;10.90;;;;;;;-1.89;57.74;94759.28;5040804;28;20485;-65
2022/12/11 04:43:22;;;;;;;22.58;11.32;;;;;;;-1.66;57.51;94758.38;5040885;28;20032;-65
2022/12/11 04:45:47;;;;;;;21.63;11.40;;;;;;;-1.95;51.56;94753.69;5040966;28;20303;-65
2022/12/11 04:48:13;;;;;;;25.70;13.05;;;;;;;-2.06;53.31;94751.94;5041342;28;20098;-65
2022/12/11 04:50:38;;;;;;;19.55;11.15;;;;;;;-1.67;54.77;94756.72;5040701;28;20045;-65
2022/12/11 04:53:03;;;;;;;23.25;10.65;;;;;;;-1.67;56.70;94759.34;5041412;28;20029;-65
2022/12/11 04:55:29;;;;;;;23.75;11.13;;;;;;;-1.49;56.28;94752.63;5040997;28;20068;-65
2022/12/11 04:57:54;;;;;;;23.35;11.43;;;;;;;-1.39;55.07;94747.47;5041422;28;20033;-65
2022/12/11 05:00:20;;;;;;;16.92;9.18;;;;;;;-1.32;57.42;94754.81;5037625;28;20118;-65
2022/12/11 05:02:45;;;;;;;26.10;11.15;;;;;;;-1.41;57.13;94749.41;5040055;28;20075;-65
2022/12/11 05:05:11;;;;;;;32.80;12.80;;;;;;;-1.38;50.34;94751.78;5037218;28;20537;-65
2022/12/11 05:07:36;;;;;;;31.23;13.27;;;;;;;-1.50;48.28;94739.69;5041248;28;20336;-65
2022/12/11 05:10:03;;;;;;;26.40;11.48;;;;;;;-1.53;56.87;94742.56;5040244;28;20440;-65
2022/12/11 05:12:28;;;;;;;19.65;10.45;;;;;;;-1.32;58.06;94755.66;5040878;28;20170;-65
2022/12/11 05:14:54;;;;;;;23.27;12.13;;;;;;;-1.41;50.40;94743.34;5039257;28;20028;-65
2022/12/11 05:17:19;;;;;;;20.38;11.55;;;;;;;-1.41;56.43;94749.41;5039844;28;20033;-65
2022/12/11 05:19:49;;;;;;;25.80;12.38;;;;;;;-1.22;54.78;94745.28;5040622;28;20052;-65
2022/12/11 05:22:14;;;;;;;17.50;10.13;;;;;;;-1.22;56.52;94740.06;5040621;28;20206;-65
2022/12/11 05:24:40;;;;;;;18.52;10.20;;;;;;;-1.44;56.24;94740.97;5040196;28;20041;-65
2022/12/11 05:27:05;;;;;;;19.38;11.15;;;;;;;-1.52;54.42;94742.41;5040389;28;20429;-65
2022/12/11 05:29:31;;;;;;;21.45;11.63;;;;;;;-1.69;52.57;94740.34;5040962;28;20033;-65
2022/12/11 05:31:56;;;;;;;25.15;11.60;;;;;;;-1.70;50.33;94746.53;5039770;28;20103;-65
2022/12/11 05:34:22;;;;;;;21.02;10.98;;;;;;;-1.57;53.84;94741.16;5040540;28;20024;-65
2022/12/11 05:36:47;;;;;;;22.42;12.48;;;;;;;-2.09;52.41;94732.13;5039794;28;20352;-65
2022/12/11 05:39:13;;;;;;;22.67;11.65;;;;;;;-2.16;51.06;94731.78;5039604;28;20424;-65
2022/12/11 05:41:39;;;;;;;20.42;11.35;;;;;;;-2.33;50.31;94734.88;5039781;28;20037;-65
2022/12/11 05:44:04;;;;;;;24.55;11.88;;;;;;;-2.43;52.90;94739.97;5040376;28;20493;-65
2022/12/11 05:46:30;;;;;;;21.88;10.25;;;;;;;-2.32;55.94;94732.16;5039780;28;20108;-65
2022/12/11 05:48:59;;;;;;;21.23;11.00;;;;;;;-2.35;54.74;94721.97;5040179;28;20182;-65
2022/12/11 05:51:25;;;;;;;19.92;11.43;;;;;;;-2.52;55.75;94734.53;5040792;28;20477;-65
2022/12/11 05:53:51;;;;;;;18.77;11.00;;;;;;;-2.42;55.39;94729.44;5039071;28;20032;-65
2022/12/11 05:56:25;;;;;;;19.85;10.73;;;;;;;-2.04;56.14;94731.78;5038735;28;20037;-65
2022/12/11 05:58:50;;;;;;;22.25;10.70;;;;;;;-1.86;53.83;94734.72;5039521;28;20132;-65
2022/12/11 06:01:22;;;;;;;21.17;11.40;;;;;;;-1.93;52.97;94733.53;5037373;28;20183;-65
2022/12/11 06:03:48;;;;;;;18.17;9.38;;;;;;;-1.85;55.66;94731.13;5037372;28;20086;-65
2022/12/11 06:06:14;;;;;;;19.88;9.43;;;;;;;-1.68;57.34;94723.72;5038965;28;20037;-65
2022/12/11 06:08:39;;;;;;;19.88;10.98;;;;;;;-1.89;53.63;94730.56;5038846;28;20183;-65
2022/12/11 06:11:04;;;;;;;20.73;11.30;;;;;;;-2.42;55.27;94736.41;5039247;28;20039;-65
2022/12/11 06:13:30;;;;;;;21.38;11.27;;;;;;;-2.25;53.11;94728.13;5037695;28;20048;-65
2022/12/11 06:16:00;;;;;;;19.65;10.27;;;;;;;-1.93;55.88;94725.72;5039707;28;20093;-65
2022/12/11 06:18:25;;;;;;;17.23;9.07;;;;;;;-1.52;55.98;94718.91;5039544;28;20509;-65
2022/12/11 06:20:51;;;;;;;15.50;8.23;;;;;;;-1.35;56.99;94724.56;5037046;28;20102;-65
2022/12/11 06:23:16;;;;;;;17.77;10.05;;;;;;;-1.20;55.79;94727.69;5039059;28;20083;-65
2022/12/11 06:25:41;;;;;;;18.02;9.95;;;;;;;-1.06;55.82;94713.47;5037808;28;20072;-65
2022/12/11 06:28:07;;;;;;;19.60;9.18;;;;;;;-1.02;55.68;94708.84;5039345;28;20052;-65
2022/12/11 06:30:32;;;;;;;21.42;11.40;;;;;;;-1.51;52.63;94714.53;5039507;28;20426;-65
2022/12/11 06:32:58;;;;;;;20.90;11.27;;;;;;;-1.41;52.64;94712.84;5039796;28;20045;-65
2022/12/11 06:35:23;;;;;;;23.95;12.55;;;;;;;-1.40;46.54;94711.03;5038444;28;20039;-65
2022/12/11 06:37:49;;;;;;;16.08;8.13;;;;;;;-1.23;55.15;94707.03;5038277;28;20466;-65
2022/12/11 06:40:14;;;;;;;21.38;11.52;;;;;;;-1.51;49.92;94711.94;5039041;28;20029;-65
2022/12/11 06:42:40;;;;;;;13.60;8.23;;;;;;;-1.40;56.22;94698.81;5039903;28;20037;-65
2022/12/11 06:45:06;;;;;;;14.63;8.40;;;;;;;-1.24;56.91;94705.41;5039245;28;20056;-65
2022/12/11 06:47:32;;;;;;;17.23;9.82;;;;;;;-1.28;56.72;94715.28;5039941;28;20471;-65
2022/12/11 06:49:57;;;;;;;24.73;12.15;;;;;;;-1.67;46.40;94712.34;5038701;28;20049;-65
2022/12/11 06:52:23;;;;;;;15.02;8.60;;;;;;;-1.43;56.44;94711.31;5038418;28;20044;-65
2022/12/11 06:54:49;;;;;;;14.63;8.63;;;;;;;-1.22;57.01;94713.94;5039157;28;20351;-65
2022/12/11 06:57:14;;;;;;;20.95;9.95;;;;;;;-1.35;50.74;94720.16;5039501;28;20620;-65
2022/12/11 06:59:40;;;;;;;16.13;8.93;;;;;;;-1.42;56.12;94715.56;5038352;28;20087;-65
2022/12/11 07:02:05;;;;;;;14.90;8.15;;;;;;;-1.15;57.21;94720.28;5036507;28;20493;-65
2022/12/11 07:04:31;;;;;;;15.30;7.38;;;;;;;-0.91;57.08;94716.66;5036993;28;20029;-65
2022/12/11 07:06:56;;;;;;;14.10;8.15;;;;;;;-0.78;55.08;94721.66;5039246;28;20029;-65
2022/12/11 07:09:22;;;;;;;17.85;8.90;;;;;;;-0.74;56.92;94720.44;5037579;28;20108;-65
2022/12/11 07:11:50;;;;;;;17.73;10.00;;;;;;;-0.79;54.01;94720.00;5039213;28;20490;-65
2022/12/11 07:14:16;;;;;;;17.60;9.30;;;;;;;-0.58;55.03;94719.97;5037248;28;20111;-65
2022/12/11 07:16:41;;;;;;;16.52;9.60;;;;;;;-0.62;54.40;94720.34;5038284;28;20688;-65
2022/12/11 07:19:07;;;;;;;17.35;9.15;;;;;;;-0.67;54.58;94722.53;5038324;28;20436;-65
2022/12/11 07:21:32;;;;;;;16.52;8.48;;;;;;;-0.61;54.57;94720.22;5037589;28;20045;-65
2022/12/11 07:23:58;;;;;;;14.45;7.93;;;;;;;-0.53;54.03;94727.44;5039127;28;20024;-65
2022/12/11 07:26:23;;;;;;;22.10;11.73;;;;;;;-0.76;45.20;94724.97;5037044;28;20520;-65
2022/12/11 07:28:48;;;;;;;16.67;9.18;;;;;;;-0.99;52.32;94732.91;5038293;28;20585;-65
2022/12/11 07:31:19;;;;;;;19.83;9.65;;;;;;;-0.87;53.61;94730.28;5039514;28;20370;-65
2022/12/11 07:33:44;;;;;;;14.82;8.05;;;;;;;-1.27;53.04;94735.22;5036058;28;20124;-65
2022/12/11 07:36:10;;;;;;;16.17;8.68;;;;;;;-1.19;49.03;94734.56;5040301;28;20021;-65
2022/12/11 07:38:36;;;;;;;14.25;7.45;;;;;;;-1.19;53.25;94734.56;5042906;28;20029;-65
2022/12/11 07:41:02;;;;;;;14.32;7.75;;;;;;;-0.98;54.77;94737.19;5042610;28;20101;-65
2022/12/11 07:43:28;;;;;;;13.77;7.78;;;;;;;-0.91;54.84;94731.50;5043821;28;20068;-65
2022/12/11 07:45:53;;;;;;;12.90;7.43;;;;;;;-0.66;55.63;94729.41;5043302;28;20087;-65
2022/12/11 07:48:19;;;;;;;14.23;7.97;;;;;;;-0.67;55.00;94720.78;5041953;28;20533;-65
2022/12/11 07:50:44;;;;;;;13.80;7.72;;;;;;;-0.53;54.88;94724.81;5042120;28;20045;-65
2022/12/11 07:53:09;;;;;;;14.35;7.95;;;;;;;-0.44;55.49;94724.03;5040722;28;20052;-65
2022/12/11 07:55:35;;;;;;;13.15;7.18;;;;;;;-0.38;55.34;94725.28;5042462;28;20029;-65
2022/12/11 07:58:00;;;;;;;16.88;9.82;;;;;;;-0.67;51.75;94723.38;5042346;28;20071;-65
2022/12/11 08:00:26;;;;;;;27.45;12.10;;;;;;;-0.91;45.59;94726.25;5041272;28;20032;-65
2022/12/11 08:02:51;;;;;;;29.35;11.90;;;;;;;-1.72;46.43;94737.03;5042058;28;20045;-65
2022/12/11 08:05:17;;;;;;;15.80;9.02;;;;;;;-1.59;51.22;94736.06;5041472;28;20098;-65
2022/12/11 08:07:42;;;;;;;15.90;8.43;;;;;;;-1.38;48.42;94732.66;5042460;28;20048;-65
2022/12/11 08:10:08;;;;;;;17.10;9.15;;;;;;;-1.47;48.35;94726.38;5040747;28;20033;-65
2022/12/11 08:12:33;;;;;;;19.05;9.57;;;;;;;-1.34;48.82;94731.44;5041983;28;20445;-65
2022/12/11 08:14:59;;;;;;;11.80;7.28;;;;;;;-1.34;52.20;94736.66;5040301;28;20035;-65
2022/12/11 08:17:24;;;;;;;13.20;6.72;;;;;;;-1.25;53.68;94742.94;5042144;28;20049;-65
2022/12/11 08:19:50;;;;;;;14.00;7.75;;;;;;;-1.17;51.05;94743.13;5039844;28;20033;-65
2022/12/11 08:22:15;;;;;;;12.85;7.38;;;;;;;-1.20;49.67;94745.97;5040257;28;20029;-65
2022/12/11 08:24:40;;;;;;;10.45;6.25;;;;;;;-1.14;54.73;94739.41;5038919;28;20610;-65
2022/12/11 08:27:06;;;;;;;12.75;7.63;;;;;;;-0.89;54.00;94748.69;5041878;28;20531;-65
2022/12/11 08:29:31;;;;;;;12.90;7.25;;;;;;;-1.03;53.67;94749.81;5039061;28;20481;-65
2022/12/11 08:31:57;;;;;;;12.80;7.25;;;;;;;-0.79;54.69;94748.75;5041325;28;20136;-65
2022/12/11 08:34:22;;;;;;;12.98;7.47;;;;;;;-1.08;51.00;94741.53;5037061;28;20048;-65
2022/12/11 08:36:48;;;;;;;10.77;6.32;;;;;;;-1.17;51.78;94743.13;5040835;28;20614;-65
2022/12/11 08:39:13;;;;;;;13.27;7.50;;;;;;;-0.90;45.60;94743.59;5041642;28;20516;-65
2022/12/11 08:41:39;;;;;;;12.95;7.15;;;;;;;-1.46;54.91;94744.53;5040462;28;20041;-65
2022/12/11 08:44:05;;;;;;;12.55;6.63;;;;;;;-1.10;56.62;94746.88;5023349;28;20429;-65
2022/12/11 08:46:31;;;;;;;10.68;6.28;;;;;;;-0.74;56.63;94754.41;5036928;28;20283;-65
2022/12/11 08:48:56;;;;;;;12.38;7.03;;;;;;;-0.50;54.81;94742.03;5041157;28;20033;-65
2022/12/11 08:51:24;;;;;;;12.10;6.72;;;;;;;-0.36;55.28;94740.84;5039591;28;20035;-65
2022/12/11 08:53:50;;;;;;;11.65;7.07;;;;;;;-0.18;55.27;94743.66;5038907;28;20036;-65
2022/12/11 08:56:20;;;;;;;17.67;9.40;;;;;;;-0.11;52.16;94739.56;5040316;28;20039;-65
2022/12/11 08:58:45;;;;;;;14.07;8.27;;;;;;;-0.29;49.34;94749.00;5038423;28;20498;-65
2022/12/11 09:01:13;;;;;;;17.02;8.95;;;;;;;-0.39;48.95;94746.34;5039089;28;20092;-65
2022/12/11 09:03:39;;;;;;;14.10;7.88;;;;;;;-0.35;52.20;94745.13;5037790;28;20102;-65
2022/12/11 09:06:09;;;;;;;18.77;9.88;;;;;;;-0.25;50.65;94747.78;5040802;28;20084;-65
2022/12/11 09:08:35;;;;;;;14.93;7.82;;;;;;;-0.21;54.74;94744.78;5037286;28;20684;-65
2022/12/11 09:11:04;;;;;;;13.85;7.93;;;;;;;-0.02;50.99;94739.72;5037807;28;20289;-65
2022/12/11 09:13:30;;;;;;;12.43;7.18;;;;;;;0.08;54.30;94751.06;5040474;28;20102;-65
2022/12/11 09:15:55;;;;;;;14.70;8.40;;;;;;;0.22;53.58;94739.38;5040540;28;20036;-65
2022/12/11 09:18:20;;;;;;;12.57;7.35;;;;;;;0.33;52.62;94746.28;5040553;28;20049;-65
2022/12/11 09:20:46;;;;;;;20.80;10.02;;;;;;;-0.34;42.75;94745.00;5040564;28;20032;-65
2022/12/11 09:23:11;;;;;;;12.63;6.70;;;;;;;-0.29;53.81;94739.38;5039086;28;20379;-65
2022/12/11 09:25:39;;;;;;;12.15;6.93;;;;;;;-0.03;54.64;94744.13;5038777;28;20037;-65
2022/12/11 09:28:04;;;;;;;17.08;9.93;;;;;;;-0.04;44.57;94737.25;5038242;28;20028;-65
2022/12/11 09:30:30;;;;;;;10.85;6.82;;;;;;;0.11;54.15;94739.50;5040836;28;20021;-65
2022/12/11 09:32:55;;;;;;;14.90;8.05;;;;;;;0.26;53.64;94739.91;5038295;28;20078;-65
2022/12/11 09:35:20;;;;;;;12.38;7.63;;;;;;;-0.19;51.12;94739.41;5037707;28;20040;-65
2022/12/11 09:37:46;;;;;;;15.55;8.70;;;;;;;-0.18;48.05;94736.66;5039622;28;20199;-65
2022/12/11 09:40:13;;;;;;;16.15;8.48;;;;;;;-0.28;49.30;94737.56;5040164;28;20025;-65
2022/12/11 09:42:51;;;;;;;15.35;9.07;;;;;;;-0.07;53.08;94735.72;5038612;28;20017;-65
2022/12/11 09:45:17;;;;;;;15.60;8.48;;;;;;;-0.14;50.35;94739.03;5029485;28;20084;-65
2022/12/11 09:47:44;;;;;;;18.27;9.65;;;;;;;-0.62;48.95;94734.25;5040083;28;20060;-65
2022/12/11 09:50:09;;;;;;;10.77;6.07;;;;;;;-0.28;54.65;94735.78;5038752;28;20053;-65
2022/12/11 09:52:59;;;;;;;15.15;7.60;;;;;;;0.03;53.31;94735.75;5038266;28;20044;-65
2022/12/11 09:55:28;;;;;;;14.52;8.32;;;;;;;0.29;51.86;94730.03;5036686;28;20024;-65
2022/12/11 09:58:27;;;;;;;13.25;7.70;;;;;;;0.41;53.69;94722.84;5039249;28;20052;-65
2022/12/11 10:01:06;;;;;;;13.07;7.45;;;;;;;0.14;47.85;94723.53;5036563;28;20049;-65
2022/12/11 10:03:35;;;;;;;;;;;;;;;-0.11;50.70;94717.78;5039477;28;20210;-65
2022/12/11 10:06:06;;;;;;;16.92;8.80;;;;;;;-0.40;47.57;94729.00;5036829;28;19951;-65
2022/12/11 10:08:43;;;;;;;13.45;7.32;;;;;;;0.02;52.99;94725.41;5038134;28;20576;-65
2022/12/11 10:11:15;;;;;;;11.98;6.75;;;;;;;0.15;53.22;94733.84;5037094;28;20071;-65
2022/12/11 10:13:48;;;;;;;13.00;6.70;;;;;;;0.25;52.25;94735.66;5039891;28;20051;-65
2022/12/11 10:16:43;;;;;;;15.38;8.13;;;;;;;0.08;50.79;94730.94;5039695;28;20025;-65
2022/12/11 10:19:37;;;;;;;16.55;8.75;;;;;;;-0.36;46.51;94715.53;5013924;28;20076;-65
2022/12/11 10:22:03;;;;;;;12.52;6.20;;;;;;;-0.56;49.09;94727.69;5017535;28;20143;-65
2022/12/11 10:24:55;;;;;;;12.10;6.57;;;;;;;-0.39;50.03;94715.78;5031300;28;20060;-65
2022/12/11 10:27:22;;;;;;;11.85;6.75;;;;;;;-0.31;52.67;94725.59;5006586;28;20026;-65
2022/12/11 10:29:50;;;;;;;13.27;6.28;;;;;;;-0.04;53.47;94721.53;5009039;28;20096;-65
2022/12/11 10:32:23;;;;;;;11.25;6.13;;;;;;;0.03;51.98;94709.56;5009132;28;20025;-65
2022/12/11 10:35:00;;;;;;;10.15;5.90;;;;;;;0.18;53.98;94711.81;5009535;28;20025;-65
2022/12/11 10:37:25;;;;;;;10.35;6.15;;;;;;;0.36;54.36;94698.03;4990894;28;20050;-65
2022/12/11 10:39:51;;;;;;;9.32;5.93;;;;;;;0.54;53.43;94706.03;5009359;28;20472;-65
2022/12/11 10:42:19;;;;;;;9.98;5.93;;;;;;;0.77;53.70;94703.97;5007145;28;20038;-65
2022/12/11 10:45:01;;;;;;;11.37;6.60;;;;;;;0.92;51.68;94690.44;5013846;28;20038;-65
2022/12/11 10:47:27;;;;;;;9.95;5.75;;;;;;;1.03;52.80;94682.44;5013226;28;20639;-65
2022/12/11 10:49:54;;;;;;;10.48;6.05;;;;;;;1.13;52.82;94685.03;5007825;28;20056;-65
2022/12/11 10:52:25;;;;;;;12.40;6.63;;;;;;;1.16;52.37;94687.34;5010038;28;20582;-65
2022/12/11 10:55:30;;;;;;;11.73;7.13;;;;;;;0.71;49.94;94688.78;5011286;28;20017;-65
2022/12/11 10:58:03;;;;;;;13.00;8.30;;;;;;;0.30;44.79;94692.41;5008402;28;20041;-65
2022/12/11 11:00:39;;;;;;;11.73;7.35;;;;;;;0.28;46.74;94686.44;5006322;28;20065;-65
2022/12/11 11:03:06;;;;;;;15.13;7.38;;;;;;;0.37;49.20;94689.25;4990611;28;20253;-65
2022/12/11 11:05:38;;;;;;;13.65;6.75;;;;;;;0.51;50.99;94683.56;4994308;28;20148;-65
2022/12/11 11:08:09;;;;;;;11.85;6.68;;;;;;;0.51;53.25;94686.19;5015664;28;20041;-65
2022/12/11 11:10:35;;;;;;;13.63;7.85;;;;;;;0.27;51.43;94687.41;5021621;28;20518;-65
2022/12/11 11:13:01;;;;;;;13.57;7.50;;;;;;;0.58;52.19;94687.28;5021735;28;20049;-65
2022/12/11 11:15:27;;;;;;;13.20;7.72;;;;;;;0.24;50.72;94679.84;5021198;28;20115;-65
2022/12/11 11:17:54;;;;;;;22.52;13.10;;;;;;;0.02;48.67;94684.38;4992437;28;20175;-65
2022/12/11 11:20:28;;;;;;;21.45;11.38;;;;;;;-0.50;46.64;94680.09;5020185;28;20514;-65
2022/12/11 11:22:58;;;;;;;22.52;10.10;;;;;;;-0.53;52.02;94679.53;5020790;28;20038;-65
2022/12/11 11:25:25;;;;;;;19.73;10.52;;;;;;;-0.26;51.62;94678.94;5019421;28;20438;-65
2022/12/11 11:27:54;;;;;;;23.17;11.90;;;;;;;-0.86;44.33;94672.66;5008781;28;20353;-65
2022/12/11 11:30:26;;;;;;;20.30;12.20;;;;;;;-1.39;45.47;94676.97;5022066;28;20119;-65
2022/12/11 11:32:59;;;;;;;17.35;9.43;;;;;;;-0.77;50.23;94678.88;5023256;28;20078;-65
2022/12/11 11:35:25;;;;;;;20.17;11.43;;;;;;;-0.57;48.99;94673.75;5019552;28;20480;-65
2022/12/11 11:38:14;;;;;;;16.13;9.40;;;;;;;-0.21;53.63;94671.50;5022638;28;20124;-65